sensor_id;sensor_type;location;lat;lon;timestamp;temperature;humidity
41944;DHT22;27636;52.610;13.244;2024-03-23T00:57:48;7.70;99.90
41944;DHT22;27636;52.610;13.244;2024-03-23T01:02:50;7.80;99.90
41944;DHT22;27636;52.610;13.244;2024-03-23T01:07:54;7.80;99.90
41944;DHT22;27636;52.610;13.244;2024-03-23T01:12:57;7.80;99.90
41944;DHT22;27636;52.610;13.244;2024-03-23T01:18:00;7.80;99.90
41944;DHT22;27636;52.610;13.244;2024-03-23T01:23:04;7.80;99.90
41944;DHT22;27636;52.610;13.244;2024-03-23T01:28:07;7.70;99.90
41944;DHT22;27636;52.610;13.244;2024-03-23T01:33:10;7.70;99.90
41944;DHT22;27636;52.610;13.244;2024-03-23T01:38:14;7.70;99.90
41944;DHT22;27636;52.610;13.244;2024-03-23T01:43:16;7.70;99.90
41944;DHT22;27636;52.610;13.244;2024-03-23T01:48:19;7.50;99.90
41944;DHT22;27636;52.610;13.244;2024-03-23T01:53:23;7.60;99.90
41944;DHT22;27636;52.610;13.244;2024-03-23T01:58:27;7.60;99.90
41944;DHT22;27636;52.610;13.244;2024-03-23T02:03:30;7.60;99.90
41944;DHT22;27636;52.610;13.244;2024-03-23T02:08:34;7.60;99.90
41944;DHT22;27636;52.610;13.244;2024-03-23T02:13:37;7.70;99.90
41944;DHT22;27636;52.610;13.244;2024-03-23T02:18:40;7.60;99.90
41944;DHT22;27636;52.610;13.244;2024-03-23T02:23:44;7.70;99.90
41944;DHT22;27636;52.610;13.244;2024-03-23T02:28:47;7.70;99.90
41944;DHT22;27636;52.610;13.244;2024-03-23T02:33:50;7.80;99.90
41944;DHT22;27636;52.610;13.244;2024-03-23T02:38:54;7.70;99.90
41944;DHT22;27636;52.610;13.244;2024-03-23T02:43:56;7.70;99.90
41944;DHT22;27636;52.610;13.244;2024-03-23T02:49:00;7.70;99.90
41944;DHT22;27636;52.610;13.244;2024-03-23T02:54:04;7.60;99.90
41944;DHT22;27636;52.610;13.244;2024-03-23T02:59:07;7.70;99.90
41944;DHT22;27636;52.610;13.244;2024-03-23T03:04:10;7.70;99.90
41944;DHT22;27636;52.610;13.244;2024-03-23T03:09:14;7.70;99.90
41944;DHT22;27636;52.610;13.244;2024-03-23T03:14:18;7.70;99.90
41944;DHT22;27636;52.610;13.244;2024-03-23T03:19:20;7.70;99.90
41944;DHT22;27636;52.610;13.244;2024-03-23T03:24:25;7.60;99.90
41944;DHT22;27636;52.610;13.244;2024-03-23T03:29:27;7.70;99.90
41944;DHT22;27636;52.610;13.244;2024-03-23T03:34:36;7.60;99.90
41944;DHT22;27636;52.610;13.244;2024-03-23T03:39:40;7.50;99.90
41944;DHT22;27636;52.610;13.244;2024-03-23T03:44:43;7.50;99.90
41944;DHT22;27636;52.610;13.244;2024-03-23T03:49:45;7.40;99.90
41944;DHT22;27636;52.610;13.244;2024-03-23T03:54:49;7.30;99.90
41944;DHT22;27636;52.610;13.244;2024-03-23T03:59:52;7.30;99.90
41944;DHT22;27636;52.610;13.244;2024-03-23T04:04:54;7.30;99.90
41944;DHT22;27636;52.610;13.244;2024-03-23T04:09:59;7.20;99.90
41944;DHT22;27636;52.610;13.244;2024-03-23T04:15:01;7.20;99.90
41944;DHT22;27636;52.610;13.244;2024-03-23T04:20:07;7.30;99.90
41944;DHT22;27636;52.610;13.244;2024-03-23T04:25:15;7.30;99.90
41944;DHT22;27636;52.610;13.244;2024-03-23T04:30:18;7.20;99.90
41944;DHT22;27636;52.610;13.244;2024-03-23T04:35:21;7.10;99.90
41944;DHT22;27636;52.610;13.244;2024-03-23T04:40:29;7.10;99.90
41944;DHT22;27636;52.610;13.244;2024-03-23T04:45:32;7.10;99.90
41944;DHT22;27636;52.610;13.244;2024-03-23T04:50:35;7.00;99.90
41944;DHT22;27636;52.610;13.244;2024-03-23T04:55:39;7.10;99.90
41944;DHT22;27636;52.610;13.244;2024-03-23T05:00:42;7.10;99.90
41944;DHT22;27636;52.610;13.244;2024-03-23T05:05:45;7.10;99.90
41944;DHT22;27636;52.610;13.244;2024-03-23T05:10:50;7.00;99.90
41944;DHT22;27636;52.610;13.244;2024-03-23T05:15:53;7.00;99.90
41944;DHT22;27636;52.610;13.244;2024-03-23T05:20:56;7.00;99.90
41944;DHT22;27636;52.610;13.244;2024-03-23T05:26:01;6.90;99.90
41944;DHT22;27636;52.610;13.244;2024-03-23T05:31:04;6.90;99.90
41944;DHT22;27636;52.610;13.244;2024-03-23T05:36:08;6.90;99.90
41944;DHT22;27636;52.610;13.244;2024-03-23T05:41:15;6.90;99.90
41944;DHT22;27636;52.610;13.244;2024-03-23T05:46:18;6.90;99.90
41944;DHT22;27636;52.610;13.244;2024-03-23T05:51:20;6.80;99.90
41944;DHT22;27636;52.610;13.244;2024-03-23T05:56:24;6.90;99.90
41944;DHT22;27636;52.610;13.244;2024-03-23T06:01:29;6.90;99.90
41944;DHT22;27636;52.610;13.244;2024-03-23T06:06:35;7.00;99.90
41944;DHT22;27636;52.610;13.244;2024-03-23T06:11:39;7.00;99.90
41944;DHT22;27636;52.610;13.244;2024-03-23T06:16:42;7.20;99.90
41944;DHT22;27636;52.610;13.244;2024-03-23T06:21:44;7.10;99.90
41944;DHT22;27636;52.610;13.244;2024-03-23T06:26:48;7.10;99.90
41944;DHT22;27636;52.610;13.244;2024-03-23T06:31:54;7.20;99.90
41944;DHT22;27636;52.610;13.244;2024-03-23T06:36:58;7.20;99.90
41944;DHT22;27636;52.610;13.244;2024-03-23T06:42:02;7.40;99.90
41944;DHT22;27636;52.610;13.244;2024-03-23T06:47:05;7.30;99.90
41944;DHT22;27636;52.610;13.244;2024-03-23T06:52:08;7.40;99.90
41944;DHT22;27636;52.610;13.244;2024-03-23T06:57:12;7.50;99.90
41944;DHT22;27636;52.610;13.244;2024-03-23T07:02:15;7.60;99.90
41944;DHT22;27636;52.610;13.244;2024-03-23T07:07:18;7.70;99.90
41944;DHT22;27636;52.610;13.244;2024-03-23T07:12:22;7.80;99.90
41944;DHT22;27636;52.610;13.244;2024-03-23T07:17:25;8.10;99.90
41944;DHT22;27636;52.610;13.244;2024-03-23T07:22:28;8.30;99.90
41944;DHT22;27636;52.610;13.244;2024-03-23T07:27:32;8.40;99.90
41944;DHT22;27636;52.610;13.244;2024-03-23T07:32:36;8.60;99.90
41944;DHT22;27636;52.610;13.244;2024-03-23T07:37:39;8.50;99.90
41944;DHT22;27636;52.610;13.244;2024-03-23T07:42:43;8.20;99.90
41944;DHT22;27636;52.610;13.244;2024-03-23T07:47:46;7.90;99.90
41944;DHT22;27636;52.610;13.244;2024-03-23T07:52:49;7.60;99.90
41944;DHT22;27636;52.610;13.244;2024-03-23T07:57:53;7.40;99.90
41944;DHT22;27636;52.610;13.244;2024-03-23T08:02:56;7.40;99.90
41944;DHT22;27636;52.610;13.244;2024-03-23T08:07:58;7.20;99.90
41944;DHT22;27636;52.610;13.244;2024-03-23T08:13:03;6.90;99.90
41944;DHT22;27636;52.610;13.244;2024-03-23T08:18:06;7.00;99.90
41944;DHT22;27636;52.610;13.244;2024-03-23T08:23:09;7.10;99.90
41944;DHT22;27636;52.610;13.244;2024-03-23T08:28:13;6.90;99.90
41944;DHT22;27636;52.610;13.244;2024-03-23T08:33:16;6.70;99.90
41944;DHT22;27636;52.610;13.244;2024-03-23T08:38:19;6.70;99.90
41944;DHT22;27636;52.610;13.244;2024-03-23T08:43:23;6.50;99.90
41944;DHT22;27636;52.610;13.244;2024-03-23T08:48:26;6.60;99.90
41944;DHT22;27636;52.610;13.244;2024-03-23T08:53:29;6.60;99.90
41944;DHT22;27636;52.610;13.244;2024-03-23T08:58:35;6.50;99.90
41944;DHT22;27636;52.610;13.244;2024-03-23T09:03:38;6.30;99.90
41944;DHT22;27636;52.610;13.244;2024-03-23T09:08:40;6.60;99.90
41944;DHT22;27636;52.610;13.244;2024-03-23T09:13:46;6.60;99.90
41944;DHT22;27636;52.610;13.244;2024-03-23T09:18:48;6.60;99.90
41944;DHT22;27636;52.610;13.244;2024-03-23T09:23:51;6.60;99.90
41944;DHT22;27636;52.610;13.244;2024-03-23T09:28:55;6.50;99.90
41944;DHT22;27636;52.610;13.244;2024-03-23T09:33:58;6.60;99.90
41944;DHT22;27636;52.610;13.244;2024-03-23T09:39:01;6.80;99.90
41944;DHT22;27636;52.610;13.244;2024-03-23T09:44:05;6.90;99.90
41944;DHT22;27636;52.610;13.244;2024-03-23T09:49:08;6.90;99.90
41944;DHT22;27636;52.610;13.244;2024-03-23T09:54:12;6.80;99.90
41944;DHT22;27636;52.610;13.244;2024-03-23T09:59:16;6.60;99.90
41944;DHT22;27636;52.610;13.244;2024-03-23T10:04:38;6.70;99.90
41944;DHT22;27636;52.610;13.244;2024-03-23T10:09:41;6.80;99.90
41944;DHT22;27636;52.610;13.244;2024-03-23T10:14:45;6.80;99.90
41944;DHT22;27636;52.610;13.244;2024-03-23T10:19:49;6.80;99.90
41944;DHT22;27636;52.610;13.244;2024-03-23T10:25:08;6.80;99.90
41944;DHT22;27636;52.610;13.244;2024-03-23T10:30:13;6.80;99.90
41944;DHT22;27636;52.610;13.244;2024-03-23T10:35:20;6.70;99.90
41944;DHT22;27636;52.610;13.244;2024-03-23T10:40:27;6.60;99.90
41944;DHT22;27636;52.610;13.244;2024-03-23T10:45:33;6.60;99.90
41944;DHT22;27636;52.610;13.244;2024-03-23T10:50:36;6.60;99.90
41944;DHT22;27636;52.610;13.244;2024-03-23T10:55:41;6.80;99.90
41944;DHT22;27636;52.610;13.244;2024-03-23T11:00:45;7.00;99.90
41944;DHT22;27636;52.610;13.244;2024-03-23T11:05:48;7.00;99.90
41944;DHT22;27636;52.610;13.244;2024-03-23T11:10:50;7.20;99.90
41944;DHT22;27636;52.610;13.244;2024-03-23T11:15:54;7.20;99.90
41944;DHT22;27636;52.610;13.244;2024-03-23T11:20:57;7.40;99.90
41944;DHT22;27636;52.610;13.244;2024-03-23T11:26:00;7.60;99.90
41944;DHT22;27636;52.610;13.244;2024-03-23T11:31:10;7.70;99.90
41944;DHT22;27636;52.610;13.244;2024-03-23T11:36:18;7.70;99.90
41944;DHT22;27636;52.610;13.244;2024-03-23T11:41:21;8.30;99.90
41944;DHT22;27636;52.610;13.244;2024-03-23T11:46:25;8.60;99.90
41944;DHT22;27636;52.610;13.244;2024-03-23T11:51:30;9.10;99.90
41944;DHT22;27636;52.610;13.244;2024-03-23T11:56:37;9.40;99.90
41944;DHT22;27636;52.610;13.244;2024-03-23T12:01:41;9.10;99.90
41944;DHT22;27636;52.610;13.244;2024-03-23T12:06:43;8.80;99.90
41944;DHT22;27636;52.610;13.244;2024-03-23T12:11:46;8.30;99.90
41944;DHT22;27636;52.610;13.244;2024-03-23T12:16:51;8.60;99.90
41944;DHT22;27636;52.610;13.244;2024-03-23T12:21:53;9.00;99.90
41944;DHT22;27636;52.610;13.244;2024-03-23T12:27:00;9.00;99.90
41944;DHT22;27636;52.610;13.244;2024-03-23T12:32:05;9.00;99.90
41944;DHT22;27636;52.610;13.244;2024-03-23T12:37:08;9.00;99.90
41944;DHT22;27636;52.610;13.244;2024-03-23T12:42:11;9.70;99.90
41944;DHT22;27636;52.610;13.244;2024-03-23T12:47:15;10.40;99.90
41944;DHT22;27636;52.610;13.244;2024-03-23T12:52:18;10.20;99.90
41944;DHT22;27636;52.610;13.244;2024-03-23T12:57:24;10.10;99.90
41944;DHT22;27636;52.610;13.244;2024-03-23T13:02:28;9.90;99.90
41944;DHT22;27636;52.610;13.244;2024-03-23T13:07:31;10.50;99.90
41944;DHT22;27636;52.610;13.244;2024-03-23T13:12:34;11.00;99.90
41944;DHT22;27636;52.610;13.244;2024-03-23T13:17:38;10.70;99.90
41944;DHT22;27636;52.610;13.244;2024-03-23T13:22:42;10.70;99.90
41944;DHT22;27636;52.610;13.244;2024-03-23T13:27:44;11.70;99.90
41944;DHT22;27636;52.610;13.244;2024-03-23T13:32:48;12.30;99.90
41944;DHT22;27636;52.610;13.244;2024-03-23T13:37:51;11.30;99.90
41944;DHT22;27636;52.610;13.244;2024-03-23T13:42:54;10.40;99.90
41944;DHT22;27636;52.610;13.244;2024-03-23T13:47:58;9.90;99.90
41944;DHT22;27636;52.610;13.244;2024-03-23T13:53:01;10.20;99.90
41944;DHT22;27636;52.610;13.244;2024-03-23T13:58:04;10.10;99.90
41944;DHT22;27636;52.610;13.244;2024-03-23T14:03:08;9.90;99.90
41944;DHT22;27636;52.610;13.244;2024-03-23T14:08:11;9.70;99.90
41944;DHT22;27636;52.610;13.244;2024-03-23T14:13:14;9.40;99.90
41944;DHT22;27636;52.610;13.244;2024-03-23T14:18:18;9.00;99.90
41944;DHT22;27636;52.610;13.244;2024-03-23T14:23:21;8.20;99.90
41944;DHT22;27636;52.610;13.244;2024-03-23T14:28:24;7.30;99.90
41944;DHT22;27636;52.610;13.244;2024-03-23T14:33:28;6.80;99.90
41944;DHT22;27636;52.610;13.244;2024-03-23T14:38:31;6.00;99.90
41944;DHT22;27636;52.610;13.244;2024-03-23T14:43:34;6.00;99.90
41944;DHT22;27636;52.610;13.244;2024-03-23T14:48:38;5.90;99.90
41944;DHT22;27636;52.610;13.244;2024-03-23T14:53:45;6.20;99.90
41944;DHT22;27636;52.610;13.244;2024-03-23T14:58:52;7.10;99.90
41944;DHT22;27636;52.610;13.244;2024-03-23T15:03:56;7.80;99.90
41944;DHT22;27636;52.610;13.244;2024-03-23T15:08:59;8.30;99.90
41944;DHT22;27636;52.610;13.244;2024-03-23T15:14:01;9.10;99.90
41944;DHT22;27636;52.610;13.244;2024-03-23T15:19:05;9.60;99.90
41944;DHT22;27636;52.610;13.244;2024-03-23T15:24:08;9.60;99.90
41944;DHT22;27636;52.610;13.244;2024-03-23T15:29:13;9.30;99.90
41944;DHT22;27636;52.610;13.244;2024-03-23T15:34:21;9.30;99.90
41944;DHT22;27636;52.610;13.244;2024-03-23T15:39:26;9.70;99.90
41944;DHT22;27636;52.610;13.244;2024-03-23T15:44:29;9.50;99.90
41944;DHT22;27636;52.610;13.244;2024-03-23T15:49:33;8.80;99.90
41944;DHT22;27636;52.610;13.244;2024-03-23T15:54:36;8.40;99.90
41944;DHT22;27636;52.610;13.244;2024-03-23T15:59:40;8.10;99.90
41944;DHT22;27636;52.610;13.244;2024-03-23T16:04:44;8.10;99.90
41944;DHT22;27636;52.610;13.244;2024-03-23T16:09:47;8.30;99.90
41944;DHT22;27636;52.610;13.244;2024-03-23T16:14:50;8.20;99.90
41944;DHT22;27636;52.610;13.244;2024-03-23T16:19:55;7.90;99.90
41944;DHT22;27636;52.610;13.244;2024-03-23T16:24:57;7.70;99.90
41944;DHT22;27636;52.610;13.244;2024-03-23T16:30:00;7.60;99.90
41944;DHT22;27636;52.610;13.244;2024-03-23T16:35:05;7.30;99.90
41944;DHT22;27636;52.610;13.244;2024-03-23T16:40:09;7.00;99.90
41944;DHT22;27636;52.610;13.244;2024-03-23T16:45:12;7.00;99.90
41944;DHT22;27636;52.610;13.244;2024-03-23T16:50:16;6.80;99.90
41944;DHT22;27636;52.610;13.244;2024-03-23T16:55:19;6.70;99.90
41944;DHT22;27636;52.610;13.244;2024-03-23T17:00:22;6.60;99.90
41944;DHT22;27636;52.610;13.244;2024-03-23T17:05:26;6.40;99.90
41944;DHT22;27636;52.610;13.244;2024-03-23T17:10:29;6.40;99.90
41944;DHT22;27636;52.610;13.244;2024-03-23T17:15:31;6.40;99.90
41944;DHT22;27636;52.610;13.244;2024-03-23T17:20:36;6.20;99.90
41944;DHT22;27636;52.610;13.244;2024-03-23T17:25:39;6.10;99.90
41944;DHT22;27636;52.610;13.244;2024-03-23T17:30:42;6.00;99.90
41944;DHT22;27636;52.610;13.244;2024-03-23T17:35:46;5.50;99.90
41944;DHT22;27636;52.610;13.244;2024-03-23T17:40:55;5.40;99.90
41944;DHT22;27636;52.610;13.244;2024-03-23T17:45:58;5.50;99.90
41944;DHT22;27636;52.610;13.244;2024-03-23T17:51:04;5.50;99.90
41944;DHT22;27636;52.610;13.244;2024-03-23T17:56:10;5.30;99.90
41944;DHT22;27636;52.610;13.244;2024-03-23T18:01:13;5.40;99.90
41944;DHT22;27636;52.610;13.244;2024-03-23T18:06:17;6.20;99.90
41944;DHT22;27636;52.610;13.244;2024-03-23T18:11:19;6.50;99.90
41944;DHT22;27636;52.610;13.244;2024-03-23T18:16:22;6.50;99.90
41944;DHT22;27636;52.610;13.244;2024-03-23T18:21:26;6.40;99.90
41944;DHT22;27636;52.610;13.244;2024-03-23T18:26:29;6.30;99.90
41944;DHT22;27636;52.610;13.244;2024-03-23T18:31:32;6.10;99.90
41944;DHT22;27636;52.610;13.244;2024-03-23T18:36:37;6.00;99.90
41944;DHT22;27636;52.610;13.244;2024-03-23T18:41:39;5.90;99.90
41944;DHT22;27636;52.610;13.244;2024-03-23T18:46:42;5.80;99.90
41944;DHT22;27636;52.610;13.244;2024-03-23T18:51:46;5.70;99.90
41944;DHT22;27636;52.610;13.244;2024-03-23T18:56:48;5.60;99.90
41944;DHT22;27636;52.610;13.244;2024-03-23T19:01:51;5.70;99.90
41944;DHT22;27636;52.610;13.244;2024-03-23T19:06:55;5.70;99.90
41944;DHT22;27636;52.610;13.244;2024-03-23T19:11:58;5.50;99.90
41944;DHT22;27636;52.610;13.244;2024-03-23T19:17:02;5.50;99.90
41944;DHT22;27636;52.610;13.244;2024-03-23T19:22:06;5.40;99.90
41944;DHT22;27636;52.610;13.244;2024-03-23T19:27:09;5.30;99.90
41944;DHT22;27636;52.610;13.244;2024-03-23T19:32:12;5.20;99.90
41944;DHT22;27636;52.610;13.244;2024-03-23T19:37:16;5.10;99.90
41944;DHT22;27636;52.610;13.244;2024-03-23T19:42:20;4.80;99.90
41944;DHT22;27636;52.610;13.244;2024-03-23T19:47:23;4.50;99.90
41944;DHT22;27636;52.610;13.244;2024-03-23T19:52:28;4.20;99.90
41944;DHT22;27636;52.610;13.244;2024-03-23T19:57:31;4.30;99.90
41944;DHT22;27636;52.610;13.244;2024-03-23T20:02:34;4.40;99.90
41944;DHT22;27636;52.610;13.244;2024-03-23T20:07:38;4.40;99.90
41944;DHT22;27636;52.610;13.244;2024-03-23T20:12:41;4.40;99.90
41944;DHT22;27636;52.610;13.244;2024-03-23T20:17:44;4.50;99.90
41944;DHT22;27636;52.610;13.244;2024-03-23T20:22:49;4.40;99.90
41944;DHT22;27636;52.610;13.244;2024-03-23T20:27:52;4.10;99.90
41944;DHT22;27636;52.610;13.244;2024-03-23T20:32:55;3.80;99.90
41944;DHT22;27636;52.610;13.244;2024-03-23T20:37:58;3.70;99.90
41944;DHT22;27636;52.610;13.244;2024-03-23T20:43:07;3.70;99.90
41944;DHT22;27636;52.610;13.244;2024-03-23T20:48:10;3.60;99.90
41944;DHT22;27636;52.610;13.244;2024-03-23T20:53:16;3.60;99.90
41944;DHT22;27636;52.610;13.244;2024-03-23T20:58:19;3.40;99.90
41944;DHT22;27636;52.610;13.244;2024-03-23T21:03:22;3.40;99.90
41944;DHT22;27636;52.610;13.244;2024-03-23T21:08:26;3.30;99.90
41944;DHT22;27636;52.610;13.244;2024-03-23T21:13:29;3.30;99.90
41944;DHT22;27636;52.610;13.244;2024-03-23T21:18:32;3.20;99.90
41944;DHT22;27636;52.610;13.244;2024-03-23T21:23:37;3.30;99.90
41944;DHT22;27636;52.610;13.244;2024-03-23T21:28:39;3.20;99.90
41944;DHT22;27636;52.610;13.244;2024-03-23T21:33:42;3.20;99.90
41944;DHT22;27636;52.610;13.244;2024-03-23T21:38:46;3.10;99.90
41944;DHT22;27636;52.610;13.244;2024-03-23T21:43:49;3.00;99.90
41944;DHT22;27636;52.610;13.244;2024-03-23T21:48:52;3.00;99.90
41944;DHT22;27636;52.610;13.244;2024-03-23T21:53:56;3.00;99.90
41944;DHT22;27636;52.610;13.244;2024-03-23T21:59:00;3.00;99.90
41944;DHT22;27636;52.610;13.244;2024-03-23T22:04:03;3.20;99.90
41944;DHT22;27636;52.610;13.244;2024-03-23T22:09:07;3.30;99.90
41944;DHT22;27636;52.610;13.244;2024-03-23T22:14:11;3.30;99.90
41944;DHT22;27636;52.610;13.244;2024-03-23T22:19:14;3.20;99.90
41944;DHT22;27636;52.610;13.244;2024-03-23T22:24:18;3.40;99.90
41944;DHT22;27636;52.610;13.244;2024-03-23T22:29:22;3.00;99.90
41944;DHT22;27636;52.610;13.244;2024-03-23T22:34:25;3.00;99.90
41944;DHT22;27636;52.610;13.244;2024-03-23T22:39:32;2.90;99.90
41944;DHT22;27636;52.610;13.244;2024-03-23T22:44:35;2.90;99.90
41944;DHT22;27636;52.610;13.244;2024-03-23T22:49:38;2.90;99.90
41944;DHT22;27636;52.610;13.244;2024-03-23T22:54:44;2.90;99.90
41944;DHT22;27636;52.610;13.244;2024-03-23T22:59:47;3.00;99.90
41944;DHT22;27636;52.610;13.244;2024-03-23T23:04:49;3.00;99.90
41944;DHT22;27636;52.610;13.244;2024-03-23T23:09:53;3.10;99.90
41944;DHT22;27636;52.610;13.244;2024-03-23T23:14:56;3.20;99.90
41944;DHT22;27636;52.610;13.244;2024-03-23T23:19:59;3.20;99.90
41944;DHT22;27636;52.610;13.244;2024-03-23T23:25:04;3.10;99.90
41944;DHT22;27636;52.610;13.244;2024-03-23T23:30:08;3.30;99.90
41944;DHT22;27636;52.610;13.244;2024-03-23T23:35:13;3.40;99.90
41944;DHT22;27636;52.610;13.244;2024-03-23T23:40:17;3.60;99.90
41944;DHT22;27636;52.610;13.244;2024-03-23T23:45:20;3.50;99.90
41944;DHT22;27636;52.610;13.244;2024-03-23T23:50:23;3.30;99.90
41944;DHT22;27636;52.610;13.244;2024-03-23T23:55:27;3.10;99.90
